sensor_id;sensor_type;location;lat;lon;timestamp;temperature;humidity
55331;DHT22;58851;42.984;20.336;2023-09-07T00:00:20;410.40;128.00
55331;DHT22;58851;42.984;20.336;2023-09-07T00:02:46;410.40;128.00
55331;DHT22;58851;42.984;20.336;2023-09-07T00:05:12;410.30;128.00
55331;DHT22;58851;42.984;20.336;2023-09-07T00:07:39;410.40;128.00
55331;DHT22;58851;42.984;20.336;2023-09-07T00:10:05;410.30;128.00
55331;DHT22;58851;42.984;20.336;2023-09-07T00:12:31;410.20;128.00
55331;DHT22;58851;42.984;20.336;2023-09-07T00:14:59;409.80;128.00
55331;DHT22;58851;42.984;20.336;2023-09-07T00:17:25;409.70;128.00
55331;DHT22;58851;42.984;20.336;2023-09-07T00:19:51;409.60;128.00
55331;DHT22;58851;42.984;20.336;2023-09-07T00:22:18;409.80;128.00
55331;DHT22;58851;42.984;20.336;2023-09-07T00:24:44;409.90;128.00
55331;DHT22;58851;42.984;20.336;2023-09-07T00:27:10;409.90;128.00
55331;DHT22;58851;42.984;20.336;2023-09-07T00:29:37;409.90;128.00
55331;DHT22;58851;42.984;20.336;2023-09-07T00:32:04;410.00;128.00
55331;DHT22;58851;42.984;20.336;2023-09-07T00:34:30;409.90;128.00
55331;DHT22;58851;42.984;20.336;2023-09-07T00:36:56;409.80;128.00
55331;DHT22;58851;42.984;20.336;2023-09-07T00:39:22;409.70;128.00
55331;DHT22;58851;42.984;20.336;2023-09-07T00:41:48;409.80;128.00
55331;DHT22;58851;42.984;20.336;2023-09-07T00:44:14;409.60;128.00
55331;DHT22;58851;42.984;20.336;2023-09-07T00:46:40;384.90;128.00
55331;DHT22;58851;42.984;20.336;2023-09-07T00:49:07;409.60;128.00
55331;DHT22;58851;42.984;20.336;2023-09-07T00:51:33;409.80;128.00
55331;DHT22;58851;42.984;20.336;2023-09-07T00:54:00;409.80;128.00
55331;DHT22;58851;42.984;20.336;2023-09-07T00:56:26;409.90;128.00
55331;DHT22;58851;42.984;20.336;2023-09-07T00:58:53;410.10;128.00
55331;DHT22;58851;42.984;20.336;2023-09-07T01:01:25;410.10;128.00
55331;DHT22;58851;42.984;20.336;2023-09-07T01:03:51;410.10;128.00
55331;DHT22;58851;42.984;20.336;2023-09-07T01:06:29;410.10;128.00
55331;DHT22;58851;42.984;20.336;2023-09-07T01:08:58;410.10;128.00
55331;DHT22;58851;42.984;20.336;2023-09-07T01:11:26;410.10;128.00
55331;DHT22;58851;42.984;20.336;2023-09-07T01:13:52;410.20;128.00
55331;DHT22;58851;42.984;20.336;2023-09-07T01:16:20;410.20;128.00
55331;DHT22;58851;42.984;20.336;2023-09-07T01:18:46;410.10;128.00
55331;DHT22;58851;42.984;20.336;2023-09-07T01:21:13;410.20;128.00
55331;DHT22;58851;42.984;20.336;2023-09-07T01:23:43;410.10;128.00
55331;DHT22;58851;42.984;20.336;2023-09-07T01:26:10;410.10;128.00
55331;DHT22;58851;42.984;20.336;2023-09-07T01:28:37;410.10;128.00
55331;DHT22;58851;42.984;20.336;2023-09-07T01:31:04;410.10;128.00
55331;DHT22;58851;42.984;20.336;2023-09-07T01:33:30;410.10;128.00
55331;DHT22;58851;42.984;20.336;2023-09-07T01:35:56;410.20;128.00
55331;DHT22;58851;42.984;20.336;2023-09-07T01:38:22;410.10;128.00
55331;DHT22;58851;42.984;20.336;2023-09-07T01:40:48;410.30;128.00
55331;DHT22;58851;42.984;20.336;2023-09-07T01:43:14;410.00;128.00
55331;DHT22;58851;42.984;20.336;2023-09-07T01:45:40;409.80;128.00
55331;DHT22;58851;42.984;20.336;2023-09-07T01:48:11;409.60;128.00
55331;DHT22;58851;42.984;20.336;2023-09-07T01:50:37;409.60;128.00
55331;DHT22;58851;42.984;20.336;2023-09-07T01:53:03;409.80;128.00
55331;DHT22;58851;42.984;20.336;2023-09-07T01:55:30;409.80;128.00
55331;DHT22;58851;42.984;20.336;2023-09-07T01:57:56;409.90;128.00
55331;DHT22;58851;42.984;20.336;2023-09-07T02:00:22;409.90;128.00
55331;DHT22;58851;42.984;20.336;2023-09-07T02:02:48;409.80;128.00
55331;DHT22;58851;42.984;20.336;2023-09-07T02:05:14;409.80;128.00
55331;DHT22;58851;42.984;20.336;2023-09-07T02:07:40;409.90;128.00
55331;DHT22;58851;42.984;20.336;2023-09-07T02:10:06;409.90;128.00
55331;DHT22;58851;42.984;20.336;2023-09-07T02:12:32;409.90;128.00
55331;DHT22;58851;42.984;20.336;2023-09-07T02:15:04;409.80;128.00
55331;DHT22;58851;42.984;20.336;2023-09-07T02:17:30;409.90;128.00
55331;DHT22;58851;42.984;20.336;2023-09-07T02:19:57;410.00;128.00
55331;DHT22;58851;42.984;20.336;2023-09-07T02:22:23;410.10;128.00
55331;DHT22;58851;42.984;20.336;2023-09-07T02:24:49;410.10;128.00
55331;DHT22;58851;42.984;20.336;2023-09-07T02:27:15;409.90;128.00
55331;DHT22;58851;42.984;20.336;2023-09-07T02:29:41;410.10;128.00
55331;DHT22;58851;42.984;20.336;2023-09-07T02:32:07;410.10;128.00
55331;DHT22;58851;42.984;20.336;2023-09-07T02:34:34;410.10;128.00
55331;DHT22;58851;42.984;20.336;2023-09-07T02:37:02;410.10;128.00
55331;DHT22;58851;42.984;20.336;2023-09-07T02:39:28;410.10;128.00
55331;DHT22;58851;42.984;20.336;2023-09-07T02:41:54;410.20;128.00
55331;DHT22;58851;42.984;20.336;2023-09-07T02:44:20;410.20;128.00
55331;DHT22;58851;42.984;20.336;2023-09-07T02:46:46;410.20;128.00
55331;DHT22;58851;42.984;20.336;2023-09-07T02:49:12;410.20;128.00
55331;DHT22;58851;42.984;20.336;2023-09-07T02:51:38;410.20;128.00
55331;DHT22;58851;42.984;20.336;2023-09-07T02:54:04;410.30;128.00
55331;DHT22;58851;42.984;20.336;2023-09-07T02:56:30;410.30;128.00
55331;DHT22;58851;42.984;20.336;2023-09-07T02:58:56;410.10;128.00
55331;DHT22;58851;42.984;20.336;2023-09-07T03:01:22;410.00;128.00
55331;DHT22;58851;42.984;20.336;2023-09-07T03:03:48;410.10;128.00
55331;DHT22;58851;42.984;20.336;2023-09-07T03:06:15;410.10;128.00
55331;DHT22;58851;42.984;20.336;2023-09-07T03:08:44;410.10;128.00
55331;DHT22;58851;42.984;20.336;2023-09-07T03:11:11;410.20;128.00
55331;DHT22;58851;42.984;20.336;2023-09-07T03:13:37;410.20;128.00
55331;DHT22;58851;42.984;20.336;2023-09-07T03:16:04;410.20;128.00
55331;DHT22;58851;42.984;20.336;2023-09-07T03:18:30;410.10;128.00
55331;DHT22;58851;42.984;20.336;2023-09-07T03:20:59;410.00;128.00
55331;DHT22;58851;42.984;20.336;2023-09-07T03:23:25;409.90;128.00
55331;DHT22;58851;42.984;20.336;2023-09-07T03:25:52;410.00;128.00
55331;DHT22;58851;42.984;20.336;2023-09-07T03:28:17;409.90;128.00
55331;DHT22;58851;42.984;20.336;2023-09-07T03:30:43;410.00;128.00
55331;DHT22;58851;42.984;20.336;2023-09-07T03:33:09;410.10;128.00
55331;DHT22;58851;42.984;20.336;2023-09-07T03:35:35;410.20;128.00
55331;DHT22;58851;42.984;20.336;2023-09-07T03:38:00;410.20;128.00
55331;DHT22;58851;42.984;20.336;2023-09-07T03:40:26;410.20;128.00
55331;DHT22;58851;42.984;20.336;2023-09-07T03:42:52;410.20;128.00
55331;DHT22;58851;42.984;20.336;2023-09-07T03:45:18;410.20;128.00
55331;DHT22;58851;42.984;20.336;2023-09-07T03:47:43;410.20;128.00
55331;DHT22;58851;42.984;20.336;2023-09-07T03:50:09;410.30;128.00
55331;DHT22;58851;42.984;20.336;2023-09-07T03:52:35;410.30;128.00
55331;DHT22;58851;42.984;20.336;2023-09-07T03:55:01;410.30;128.00
55331;DHT22;58851;42.984;20.336;2023-09-07T03:57:27;410.30;128.00
55331;DHT22;58851;42.984;20.336;2023-09-07T03:59:53;410.30;128.00
55331;DHT22;58851;42.984;20.336;2023-09-07T04:02:23;410.20;128.00
55331;DHT22;58851;42.984;20.336;2023-09-07T04:04:53;410.30;128.00
55331;DHT22;58851;42.984;20.336;2023-09-07T04:07:19;410.30;128.00
55331;DHT22;58851;42.984;20.336;2023-09-07T04:09:45;410.30;128.00
55331;DHT22;58851;42.984;20.336;2023-09-07T04:12:12;410.30;128.00
55331;DHT22;58851;42.984;20.336;2023-09-07T04:14:37;410.40;128.00
55331;DHT22;58851;42.984;20.336;2023-09-07T04:17:04;410.30;128.00
55331;DHT22;58851;42.984;20.336;2023-09-07T04:19:30;410.40;128.00
55331;DHT22;58851;42.984;20.336;2023-09-07T04:21:57;410.40;128.00
55331;DHT22;58851;42.984;20.336;2023-09-07T04:24:23;410.40;128.00
55331;DHT22;58851;42.984;20.336;2023-09-07T04:26:49;410.30;128.00
55331;DHT22;58851;42.984;20.336;2023-09-07T04:29:15;410.20;128.00
55331;DHT22;58851;42.984;20.336;2023-09-07T04:31:41;410.10;128.00
55331;DHT22;58851;42.984;20.336;2023-09-07T04:34:07;410.10;128.00
55331;DHT22;58851;42.984;20.336;2023-09-07T04:36:33;410.20;128.00
55331;DHT22;58851;42.984;20.336;2023-09-07T04:38:59;410.30;128.00
55331;DHT22;58851;42.984;20.336;2023-09-07T04:41:25;410.40;128.00
55331;DHT22;58851;42.984;20.336;2023-09-07T04:43:51;410.50;128.00
55331;DHT22;58851;42.984;20.336;2023-09-07T04:46:17;410.50;128.00
55331;DHT22;58851;42.984;20.336;2023-09-07T04:48:42;410.50;128.00
55331;DHT22;58851;42.984;20.336;2023-09-07T04:51:10;435.20;128.00
55331;DHT22;58851;42.984;20.336;2023-09-07T04:53:38;435.20;128.00
55331;DHT22;58851;42.984;20.336;2023-09-07T04:56:05;435.20;128.00
55331;DHT22;58851;42.984;20.336;2023-09-07T04:58:32;435.20;128.00
55331;DHT22;58851;42.984;20.336;2023-09-07T05:01:02;435.20;128.00
55331;DHT22;58851;42.984;20.336;2023-09-07T05:03:29;435.20;128.00
55331;DHT22;58851;42.984;20.336;2023-09-07T05:05:54;435.20;128.00
55331;DHT22;58851;42.984;20.336;2023-09-07T05:08:21;435.20;128.00
55331;DHT22;58851;42.984;20.336;2023-09-07T05:10:55;435.20;128.00
55331;DHT22;58851;42.984;20.336;2023-09-07T05:13:21;435.20;128.00
55331;DHT22;58851;42.984;20.336;2023-09-07T05:15:51;435.20;128.00
55331;DHT22;58851;42.984;20.336;2023-09-07T05:18:17;435.40;128.00
55331;DHT22;58851;42.984;20.336;2023-09-07T05:20:43;435.50;128.00
55331;DHT22;58851;42.984;20.336;2023-09-07T05:23:14;435.60;128.00
55331;DHT22;58851;42.984;20.336;2023-09-07T05:25:54;435.60;128.00
55331;DHT22;58851;42.984;20.336;2023-09-07T05:28:21;435.70;128.00
55331;DHT22;58851;42.984;20.336;2023-09-07T05:30:48;435.70;128.00
55331;DHT22;58851;42.984;20.336;2023-09-07T05:33:15;435.80;128.00
55331;DHT22;58851;42.984;20.336;2023-09-07T05:35:42;435.70;128.00
55331;DHT22;58851;42.984;20.336;2023-09-07T05:38:08;435.60;128.00
55331;DHT22;58851;42.984;20.336;2023-09-07T05:40:38;435.40;128.00
55331;DHT22;58851;42.984;20.336;2023-09-07T05:43:05;435.50;128.00
55331;DHT22;58851;42.984;20.336;2023-09-07T05:45:35;435.40;128.00
55331;DHT22;58851;42.984;20.336;2023-09-07T05:48:03;435.20;128.00
55331;DHT22;58851;42.984;20.336;2023-09-07T05:50:29;435.20;128.00
55331;DHT22;58851;42.984;20.336;2023-09-07T05:52:54;435.50;128.00
55331;DHT22;58851;42.984;20.336;2023-09-07T05:55:20;435.60;128.00
55331;DHT22;58851;42.984;20.336;2023-09-07T05:57:46;435.70;128.00
55331;DHT22;58851;42.984;20.336;2023-09-07T06:00:13;435.70;128.00
55331;DHT22;58851;42.984;20.336;2023-09-07T06:02:40;435.80;128.00
55331;DHT22;58851;42.984;20.336;2023-09-07T06:05:06;436.00;128.00
55331;DHT22;58851;42.984;20.336;2023-09-07T06:07:32;436.10;128.00
55331;DHT22;58851;42.984;20.336;2023-09-07T06:09:58;460.80;128.00
55331;DHT22;58851;42.984;20.336;2023-09-07T06:12:24;460.80;128.00
55331;DHT22;58851;42.984;20.336;2023-09-07T06:14:50;460.90;128.00
55331;DHT22;58851;42.984;20.336;2023-09-07T06:17:16;461.00;128.00
55331;DHT22;58851;42.984;20.336;2023-09-07T06:19:42;461.00;128.00
55331;DHT22;58851;42.984;20.336;2023-09-07T06:22:08;461.00;128.00
55331;DHT22;58851;42.984;20.336;2023-09-07T06:24:34;461.10;128.00
55331;DHT22;58851;42.984;20.336;2023-09-07T06:26:59;461.00;128.00
55331;DHT22;58851;42.984;20.336;2023-09-07T06:29:25;460.90;128.00
55331;DHT22;58851;42.984;20.336;2023-09-07T06:31:51;460.90;128.00
55331;DHT22;58851;42.984;20.336;2023-09-07T06:34:18;460.80;128.00
55331;DHT22;58851;42.984;20.336;2023-09-07T06:36:43;460.80;128.00
55331;DHT22;58851;42.984;20.336;2023-09-07T06:39:09;460.80;128.00
55331;DHT22;58851;42.984;20.336;2023-09-07T06:41:35;460.90;128.00
55331;DHT22;58851;42.984;20.336;2023-09-07T06:44:01;460.90;128.00
55331;DHT22;58851;42.984;20.336;2023-09-07T06:46:27;460.80;128.00
55331;DHT22;58851;42.984;20.336;2023-09-07T06:48:53;436.10;128.00
55331;DHT22;58851;42.984;20.336;2023-09-07T06:51:18;460.80;128.00
55331;DHT22;58851;42.984;20.336;2023-09-07T06:53:44;436.10;128.00
55331;DHT22;58851;42.984;20.336;2023-09-07T06:56:10;436.00;128.00
55331;DHT22;58851;42.984;20.336;2023-09-07T06:58:37;436.00;128.00
55331;DHT22;58851;42.984;20.336;2023-09-07T07:01:03;436.00;128.00
55331;DHT22;58851;42.984;20.336;2023-09-07T07:03:30;436.10;128.00
55331;DHT22;58851;42.984;20.336;2023-09-07T07:05:56;460.80;128.00
55331;DHT22;58851;42.984;20.336;2023-09-07T07:08:23;460.80;128.00
55331;DHT22;58851;42.984;20.336;2023-09-07T07:10:49;436.10;128.00
55331;DHT22;58851;42.984;20.336;2023-09-07T07:13:15;436.10;128.00
55331;DHT22;58851;42.984;20.336;2023-09-07T07:15:41;436.10;128.00
55331;DHT22;58851;42.984;20.336;2023-09-07T07:18:07;436.10;128.00
55331;DHT22;58851;42.984;20.336;2023-09-07T07:20:42;436.10;128.00
55331;DHT22;58851;42.984;20.336;2023-09-07T07:23:09;436.10;128.00
55331;DHT22;58851;42.984;20.336;2023-09-07T07:25:35;460.80;128.00
55331;DHT22;58851;42.984;20.336;2023-09-07T07:28:03;460.90;128.00
55331;DHT22;58851;42.984;20.336;2023-09-07T07:30:33;461.00;128.00
55331;DHT22;58851;42.984;20.336;2023-09-07T07:32:59;461.10;128.00
55331;DHT22;58851;42.984;20.336;2023-09-07T07:35:25;461.20;128.00
55331;DHT22;58851;42.984;20.336;2023-09-07T07:37:51;461.40;128.00
55331;DHT22;58851;42.984;20.336;2023-09-07T07:40:17;461.40;128.00
55331;DHT22;58851;42.984;20.336;2023-09-07T07:42:44;461.50;128.00
55331;DHT22;58851;42.984;20.336;2023-09-07T07:45:12;461.60;128.00
55331;DHT22;58851;42.984;20.336;2023-09-07T07:47:38;461.70;128.00
55331;DHT22;58851;42.984;20.336;2023-09-07T07:50:04;486.40;128.00
55331;DHT22;58851;42.984;20.336;2023-09-07T07:52:30;486.40;128.00
55331;DHT22;58851;42.984;20.336;2023-09-07T07:54:56;486.50;128.00
55331;DHT22;58851;42.984;20.336;2023-09-07T07:57:22;486.50;128.00
55331;DHT22;58851;42.984;20.336;2023-09-07T07:59:48;486.40;128.00
55331;DHT22;58851;42.984;20.336;2023-09-07T08:02:14;486.50;128.00
55331;DHT22;58851;42.984;20.336;2023-09-07T08:04:40;486.50;128.00
55331;DHT22;58851;42.984;20.336;2023-09-07T08:07:05;486.60;128.00
55331;DHT22;58851;42.984;20.336;2023-09-07T08:09:34;486.60;128.00
55331;DHT22;58851;42.984;20.336;2023-09-07T08:12:00;486.50;204.80
55331;DHT22;58851;42.984;20.336;2023-09-07T08:14:28;486.60;409.60
55331;DHT22;58851;42.984;20.336;2023-09-07T08:16:54;486.60;435.20
55331;DHT22;58851;42.984;20.336;2023-09-07T08:19:20;486.70;435.20
55331;DHT22;58851;42.984;20.336;2023-09-07T08:21:46;486.80;332.80
55331;DHT22;58851;42.984;20.336;2023-09-07T08:24:12;486.80;332.80
55331;DHT22;58851;42.984;20.336;2023-09-07T08:26:38;486.90;128.00
55331;DHT22;58851;42.984;20.336;2023-09-07T08:29:05;486.90;128.00
55331;DHT22;58851;42.984;20.336;2023-09-07T08:31:35;487.10;128.00
55331;DHT22;58851;42.984;20.336;2023-09-07T08:34:01;487.00;128.00
55331;DHT22;58851;42.984;20.336;2023-09-07T08:36:30;486.90;128.00
55331;DHT22;58851;42.984;20.336;2023-09-07T08:39:00;486.90;128.00
55331;DHT22;58851;42.984;20.336;2023-09-07T08:41:32;486.90;128.00
55331;DHT22;58851;42.984;20.336;2023-09-07T08:44:04;487.00;128.00
55331;DHT22;58851;42.984;20.336;2023-09-07T08:46:32;487.00;128.00
55331;DHT22;58851;42.984;20.336;2023-09-07T08:49:00;487.00;128.00
55331;DHT22;58851;42.984;20.336;2023-09-07T08:51:27;487.10;128.00
55331;DHT22;58851;42.984;20.336;2023-09-07T08:53:57;487.30;128.00
55331;DHT22;58851;42.984;20.336;2023-09-07T08:56:23;487.30;128.00
55331;DHT22;58851;42.984;20.336;2023-09-07T08:58:49;487.30;128.00
55331;DHT22;58851;42.984;20.336;2023-09-07T09:01:16;512.00;128.00
55331;DHT22;58851;42.984;20.336;2023-09-07T09:03:45;512.00;128.00
55331;DHT22;58851;42.984;20.336;2023-09-07T09:06:12;487.20;128.00
55331;DHT22;58851;42.984;20.336;2023-09-07T09:08:55;512.00;128.00
55331;DHT22;58851;42.984;20.336;2023-09-07T09:11:22;487.20;307.20
55331;DHT22;58851;42.984;20.336;2023-09-07T09:13:53;487.30;128.00
55331;DHT22;58851;42.984;20.336;2023-09-07T09:16:20;512.00;358.40
55331;DHT22;58851;42.984;20.336;2023-09-07T09:18:53;512.20;128.00
55331;DHT22;58851;42.984;20.336;2023-09-07T09:21:20;512.40;128.00
55331;DHT22;58851;42.984;20.336;2023-09-07T09:23:48;512.50;128.00
55331;DHT22;58851;42.984;20.336;2023-09-07T09:26:15;512.50;128.00
55331;DHT22;58851;42.984;20.336;2023-09-07T09:28:42;512.50;128.00
55331;DHT22;58851;42.984;20.336;2023-09-07T09:31:10;512.70;128.00
55331;DHT22;58851;42.984;20.336;2023-09-07T09:33:39;512.90;128.00
55331;DHT22;58851;42.984;20.336;2023-09-07T09:36:06;537.60;128.00
55331;DHT22;58851;42.984;20.336;2023-09-07T09:38:33;537.80;128.00
55331;DHT22;58851;42.984;20.336;2023-09-07T09:40:59;538.00;128.00
55331;DHT22;58851;42.984;20.336;2023-09-07T09:43:26;538.10;128.00
55331;DHT22;58851;42.984;20.336;2023-09-07T09:45:52;538.10;409.60
55331;DHT22;58851;42.984;20.336;2023-09-07T09:48:22;538.10;128.00
55331;DHT22;58851;42.984;20.336;2023-09-07T09:50:49;538.10;128.00
55331;DHT22;58851;42.984;20.336;2023-09-07T09:53:19;538.10;128.00
55331;DHT22;58851;42.984;20.336;2023-09-07T09:55:50;538.20;409.60
55331;DHT22;58851;42.984;20.336;2023-09-07T09:58:19;538.10;128.00
55331;DHT22;58851;42.984;20.336;2023-09-07T10:00:47;538.30;128.00
55331;DHT22;58851;42.984;20.336;2023-09-07T10:03:28;538.50;128.00
55331;DHT22;58851;42.984;20.336;2023-09-07T10:05:56;563.30;128.00
55331;DHT22;58851;42.984;20.336;2023-09-07T10:08:22;563.30;128.00
55331;DHT22;58851;42.984;20.336;2023-09-07T10:10:52;563.40;128.00
55331;DHT22;58851;42.984;20.336;2023-09-07T10:13:32;563.40;128.00
55331;DHT22;58851;42.984;20.336;2023-09-07T10:16:08;563.50;128.00
55331;DHT22;58851;42.984;20.336;2023-09-07T10:18:38;563.50;128.00
55331;DHT22;58851;42.984;20.336;2023-09-07T10:21:05;563.70;128.00
55331;DHT22;58851;42.984;20.336;2023-09-07T10:23:44;563.60;128.00
55331;DHT22;58851;42.984;20.336;2023-09-07T10:26:15;563.70;128.00
55331;DHT22;58851;42.984;20.336;2023-09-07T10:28:45;563.70;128.00
55331;DHT22;58851;42.984;20.336;2023-09-07T10:31:15;563.70;128.00
55331;DHT22;58851;42.984;20.336;2023-09-07T10:33:41;563.90;128.00
55331;DHT22;58851;42.984;20.336;2023-09-07T10:36:07;563.80;128.00
55331;DHT22;58851;42.984;20.336;2023-09-07T10:38:34;563.80;128.00
55331;DHT22;58851;42.984;20.336;2023-09-07T10:41:03;564.00;128.00
55331;DHT22;58851;42.984;20.336;2023-09-07T10:43:33;563.70;128.00
55331;DHT22;58851;42.984;20.336;2023-09-07T10:46:00;563.20;128.00
55331;DHT22;58851;42.984;20.336;2023-09-07T10:48:29;563.20;128.00
55331;DHT22;58851;42.984;20.336;2023-09-07T10:50:55;538.50;128.00
55331;DHT22;58851;42.984;20.336;2023-09-07T10:53:27;563.40;128.00
55331;DHT22;58851;42.984;20.336;2023-09-07T10:55:53;563.40;128.00
55331;DHT22;58851;42.984;20.336;2023-09-07T10:58:29;563.40;128.00
55331;DHT22;58851;42.984;20.336;2023-09-07T11:00:55;563.40;128.00
55331;DHT22;58851;42.984;20.336;2023-09-07T11:03:22;563.40;128.00
55331;DHT22;58851;42.984;20.336;2023-09-07T11:05:48;563.70;128.00
55331;DHT22;58851;42.984;20.336;2023-09-07T11:08:15;564.00;128.00
55331;DHT22;58851;42.984;20.336;2023-09-07T11:10:41;589.10;128.00
55331;DHT22;58851;42.984;20.336;2023-09-07T11:13:09;589.50;128.00
55331;DHT22;58851;42.984;20.336;2023-09-07T11:15:35;589.60;128.00
55331;DHT22;58851;42.984;20.336;2023-09-07T11:18:07;589.60;128.00
55331;DHT22;58851;42.984;20.336;2023-09-07T11:20:37;589.60;128.00
55331;DHT22;58851;42.984;20.336;2023-09-07T11:23:06;614.40;128.00
55331;DHT22;58851;42.984;20.336;2023-09-07T11:25:40;614.70;128.00
55331;DHT22;58851;42.984;20.336;2023-09-07T11:28:08;614.70;128.00
55331;DHT22;58851;42.984;20.336;2023-09-07T11:30:35;614.90;128.00
55331;DHT22;58851;42.984;20.336;2023-09-07T11:33:02;615.00;128.00
55331;DHT22;58851;42.984;20.336;2023-09-07T11:35:29;615.00;128.00
55331;DHT22;58851;42.984;20.336;2023-09-07T11:37:55;615.00;128.00
55331;DHT22;58851;42.984;20.336;2023-09-07T11:40:21;615.00;128.00
55331;DHT22;58851;42.984;20.336;2023-09-07T11:42:47;615.10;128.00
55331;DHT22;58851;42.984;20.336;2023-09-07T11:45:13;640.00;128.00
55331;DHT22;58851;42.984;20.336;2023-09-07T11:47:39;640.40;128.00
55331;DHT22;58851;42.984;20.336;2023-09-07T11:50:06;640.70;691.20
55331;DHT22;58851;42.984;20.336;2023-09-07T11:52:35;640.60;307.20
55331;DHT22;58851;42.984;20.336;2023-09-07T11:55:01;640.60;179.20
55331;DHT22;58851;42.984;20.336;2023-09-07T11:57:29;640.70;128.00
55331;DHT22;58851;42.984;20.336;2023-09-07T11:59:55;640.70;128.00
55331;DHT22;58851;42.984;20.336;2023-09-07T12:02:21;665.60;153.60
55331;DHT22;58851;42.984;20.336;2023-09-07T12:04:47;665.90;153.60
55331;DHT22;58851;42.984;20.336;2023-09-07T12:07:14;665.80;153.60
55331;DHT22;58851;42.984;20.336;2023-09-07T12:09:40;665.80;153.60
55331;DHT22;58851;42.984;20.336;2023-09-07T12:12:06;665.90;153.60
55331;DHT22;58851;42.984;20.336;2023-09-07T12:14:35;665.90;153.60
55331;DHT22;58851;42.984;20.336;2023-09-07T12:17:00;665.90;153.60
55331;DHT22;58851;42.984;20.336;2023-09-07T12:19:26;666.40;153.60
55331;DHT22;58851;42.984;20.336;2023-09-07T12:21:52;666.20;153.60
55331;DHT22;58851;42.984;20.336;2023-09-07T12:24:18;666.50;153.60
55331;DHT22;58851;42.984;20.336;2023-09-07T12:26:44;691.30;153.60
55331;DHT22;58851;42.984;20.336;2023-09-07T12:29:09;691.90;153.60
55331;DHT22;58851;42.984;20.336;2023-09-07T12:31:35;691.90;153.60
55331;DHT22;58851;42.984;20.336;2023-09-07T12:34:01;666.20;153.60
55331;DHT22;58851;42.984;20.336;2023-09-07T12:36:27;665.80;153.60
55331;DHT22;58851;42.984;20.336;2023-09-07T12:38:55;640.10;128.00
55331;DHT22;58851;42.984;20.336;2023-09-07T12:41:27;640.10;128.00
55331;DHT22;58851;42.984;20.336;2023-09-07T12:43:54;615.20;128.00
55331;DHT22;58851;42.984;20.336;2023-09-07T12:46:20;640.20;128.00
55331;DHT22;58851;42.984;20.336;2023-09-07T12:48:45;640.30;128.00
55331;DHT22;58851;42.984;20.336;2023-09-07T12:51:11;640.50;128.00
55331;DHT22;58851;42.984;20.336;2023-09-07T12:53:37;665.90;153.60
55331;DHT22;58851;42.984;20.336;2023-09-07T12:56:03;665.60;153.60
55331;DHT22;58851;42.984;20.336;2023-09-07T12:58:29;640.70;128.00
55331;DHT22;58851;42.984;20.336;2023-09-07T13:00:55;640.00;128.00
55331;DHT22;58851;42.984;20.336;2023-09-07T13:03:21;640.10;128.00
55331;DHT22;58851;42.984;20.336;2023-09-07T13:05:47;640.30;128.00
55331;DHT22;58851;42.984;20.336;2023-09-07T13:08:13;665.60;153.60
55331;DHT22;58851;42.984;20.336;2023-09-07T13:10:39;665.90;153.60
55331;DHT22;58851;42.984;20.336;2023-09-07T13:13:05;665.90;153.60
55331;DHT22;58851;42.984;20.336;2023-09-07T13:15:34;666.10;153.60
55331;DHT22;58851;42.984;20.336;2023-09-07T13:18:03;691.30;153.60
55331;DHT22;58851;42.984;20.336;2023-09-07T13:20:31;691.80;153.60
55331;DHT22;58851;42.984;20.336;2023-09-07T13:22:56;717.30;179.20
55331;DHT22;58851;42.984;20.336;2023-09-07T13:25:23;742.40;204.80
55331;DHT22;58851;42.984;20.336;2023-09-07T13:27:48;742.40;204.80
55331;DHT22;58851;42.984;20.336;2023-09-07T13:30:14;717.40;179.20
55331;DHT22;58851;42.984;20.336;2023-09-07T13:32:40;717.40;179.20
55331;DHT22;58851;42.984;20.336;2023-09-07T13:35:06;717.70;179.20
55331;DHT22;58851;42.984;20.336;2023-09-07T13:37:32;717.70;179.20
55331;DHT22;58851;42.984;20.336;2023-09-07T13:39:59;742.60;204.80
55331;DHT22;58851;42.984;20.336;2023-09-07T13:42:25;742.70;204.80
55331;DHT22;58851;42.984;20.336;2023-09-07T13:44:52;717.70;179.20
55331;DHT22;58851;42.984;20.336;2023-09-07T13:47:18;742.50;204.80
55331;DHT22;58851;42.984;20.336;2023-09-07T13:49:44;717.50;179.20
55331;DHT22;58851;42.984;20.336;2023-09-07T13:52:10;742.70;204.80
55331;DHT22;58851;42.984;20.336;2023-09-07T13:54:35;742.50;204.80
55331;DHT22;58851;42.984;20.336;2023-09-07T13:57:01;742.40;204.80
55331;DHT22;58851;42.984;20.336;2023-09-07T13:59:27;768.00;204.80
55331;DHT22;58851;42.984;20.336;2023-09-07T14:01:58;768.50;204.80
55331;DHT22;58851;42.984;20.336;2023-09-07T14:04:23;768.10;204.80
55331;DHT22;58851;42.984;20.336;2023-09-07T14:06:49;742.90;204.80
55331;DHT22;58851;42.984;20.336;2023-09-07T14:09:15;717.50;179.20
55331;DHT22;58851;42.984;20.336;2023-09-07T14:11:41;716.90;179.20
55331;DHT22;58851;42.984;20.336;2023-09-07T14:14:07;691.80;153.60
55331;DHT22;58851;42.984;20.336;2023-09-07T14:16:32;717.50;179.20
55331;DHT22;58851;42.984;20.336;2023-09-07T14:18:59;716.80;179.20
55331;DHT22;58851;42.984;20.336;2023-09-07T14:21:25;717.00;179.20
55331;DHT22;58851;42.984;20.336;2023-09-07T14:23:50;717.40;179.20
55331;DHT22;58851;42.984;20.336;2023-09-07T14:26:16;717.00;179.20
55331;DHT22;58851;42.984;20.336;2023-09-07T14:28:42;716.80;179.20
55331;DHT22;58851;42.984;20.336;2023-09-07T14:31:08;691.80;153.60
55331;DHT22;58851;42.984;20.336;2023-09-07T14:33:34;691.40;153.60
55331;DHT22;58851;42.984;20.336;2023-09-07T14:36:05;691.20;153.60
55331;DHT22;58851;42.984;20.336;2023-09-07T14:38:32;666.20;153.60
55331;DHT22;58851;42.984;20.336;2023-09-07T14:41:01;691.30;153.60
55331;DHT22;58851;42.984;20.336;2023-09-07T14:43:27;691.20;153.60
55331;DHT22;58851;42.984;20.336;2023-09-07T14:45:53;666.50;153.60